Terminal Aerodrome Forecast
Issued by NWS

Home | Current Version | Previous Version | Text Only | Print | Product List | Glossary On
Versions: 1 2 3 4 5 6 7 8 9 10 11 12 13 14 15 16 17 18 19 20 21 22 23 24 25 26 27 28 29 30
000
FTUS44 KTSA 211500 AAA
TAFFYV
TAF AMD
KFYV 211502Z 2115/2212 00000KT 2SM BR BKN002
      TEMPO 2115/2116 5SM BR SCT002
     FM211600 VRB03KT P6SM SCT040
     FM220000 00000KT P6SM SCT040
     FM220400 00000KT 2SM BR SCT040=

USA.gov is the U.S. government's official web portal to all federal, state and local government web resources and services.